Archival Weather

Chicago O'Hare International

Chicago, Illinois (KORD)

Report from: Sunday, January 21, 2024 1:51 AM CST
Current time: Wednesday, April 24, 2024 1:53 PM CDT

Current weather – Weather history – Daily summaries
Weather forecast

Temperature-15.6°C (3.9°F)
Wind chill-20.7°C (-5.3°F)
Dew point-20.0°C (-4.0°F)
Winds 4 kts (2.1 m/s, 4.6 mph) West-Southwest (240°)
Visibility10 mi. (16.1 km)
Clouds Sky clear
Altimeter30.60 in.Hg (1036 mB)
Relative humidity69 %
Density altitude-4,691 ft. (-1,430 m)
Sea-level pressure103.8 kPa (1038 mB, 30.64 in.Hg)
Remarks Automated weather observing station with precipitation discriminator
Flight conditions Visual Meteorological Conditions
Raw dataKORD 210751Z 24004KT 10SM CLR M16/M20 A3060 RMK AO2 SLP377 T11561200
An error has occurred. This application may no longer respond until reloaded. Reload 🗙